sensor_id;sensor_type;location;lat;lon;timestamp;P1;durP1;ratioP1;P2;durP2;ratioP2
20170;SDS011;10245;51.344;6.620;2023-02-16T00:00:06;35.80;;;21.98;;
20170;SDS011;10245;51.344;6.620;2023-02-16T00:02:35;29.92;;;19.20;;
20170;SDS011;10245;51.344;6.620;2023-02-16T00:04:58;31.15;;;20.48;;
20170;SDS011;10245;51.344;6.620;2023-02-16T00:07:22;32.80;;;20.02;;
20170;SDS011;10245;51.344;6.620;2023-02-16T00:09:46;29.98;;;19.83;;
20170;SDS011;10245;51.344;6.620;2023-02-16T00:12:13;34.10;;;22.20;;
20170;SDS011;10245;51.344;6.620;2023-02-16T00:14:58;35.42;;;20.25;;
20170;SDS011;10245;51.344;6.620;2023-02-16T00:17:21;38.30;;;20.90;;
20170;SDS011;10245;51.344;6.620;2023-02-16T00:19:45;33.75;;;21.83;;
20170;SDS011;10245;51.344;6.620;2023-02-16T00:22:08;37.17;;;20.77;;
20170;SDS011;10245;51.344;6.620;2023-02-16T00:24:33;35.05;;;21.85;;
20170;SDS011;10245;51.344;6.620;2023-02-16T00:26:58;36.25;;;21.80;;
20170;SDS011;10245;51.344;6.620;2023-02-16T00:29:23;32.83;;;21.23;;
20170;SDS011;10245;51.344;6.620;2023-02-16T00:31:49;32.92;;;19.33;;
20170;SDS011;10245;51.344;6.620;2023-02-16T00:34:20;36.55;;;21.42;;
20170;SDS011;10245;51.344;6.620;2023-02-16T00:36:51;33.58;;;20.95;;
20170;SDS011;10245;51.344;6.620;2023-02-16T00:39:16;37.17;;;21.95;;
20170;SDS011;10245;51.344;6.620;2023-02-16T00:41:40;36.78;;;20.85;;
20170;SDS011;10245;51.344;6.620;2023-02-16T00:44:15;32.28;;;20.83;;
20170;SDS011;10245;51.344;6.620;2023-02-16T00:46:41;34.20;;;20.27;;
20170;SDS011;10245;51.344;6.620;2023-02-16T00:49:07;34.47;;;22.05;;
20170;SDS011;10245;51.344;6.620;2023-02-16T00:51:35;36.67;;;21.98;;
20170;SDS011;10245;51.344;6.620;2023-02-16T00:53:58;34.25;;;20.35;;
20170;SDS011;10245;51.344;6.620;2023-02-16T00:56:21;38.92;;;21.75;;
20170;SDS011;10245;51.344;6.620;2023-02-16T00:58:46;32.15;;;20.17;;
20170;SDS011;10245;51.344;6.620;2023-02-16T01:01:13;38.92;;;22.42;;
20170;SDS011;10245;51.344;6.620;2023-02-16T01:03:41;32.85;;;20.80;;
20170;SDS011;10245;51.344;6.620;2023-02-16T01:06:05;30.55;;;19.77;;
20170;SDS011;10245;51.344;6.620;2023-02-16T01:08:47;32.08;;;20.83;;
20170;SDS011;10245;51.344;6.620;2023-02-16T01:11:28;30.98;;;20.40;;
20170;SDS011;10245;51.344;6.620;2023-02-16T01:13:54;31.92;;;20.67;;
20170;SDS011;10245;51.344;6.620;2023-02-16T01:16:19;40.40;;;23.42;;
20170;SDS011;10245;51.344;6.620;2023-02-16T01:18:45;33.42;;;21.65;;
20170;SDS011;10245;51.344;6.620;2023-02-16T01:21:09;33.15;;;21.52;;
20170;SDS011;10245;51.344;6.620;2023-02-16T01:23:32;35.20;;;21.65;;
20170;SDS011;10245;51.344;6.620;2023-02-16T01:25:56;38.80;;;23.63;;
20170;SDS011;10245;51.344;6.620;2023-02-16T01:28:20;34.95;;;20.95;;
20170;SDS011;10245;51.344;6.620;2023-02-16T01:30:47;39.63;;;23.77;;
20170;SDS011;10245;51.344;6.620;2023-02-16T01:33:12;35.53;;;22.40;;
20170;SDS011;10245;51.344;6.620;2023-02-16T01:35:35;34.47;;;21.08;;
20170;SDS011;10245;51.344;6.620;2023-02-16T01:37:59;41.85;;;22.45;;
20170;SDS011;10245;51.344;6.620;2023-02-16T01:40:25;40.22;;;24.00;;
20170;SDS011;10245;51.344;6.620;2023-02-16T01:43:05;35.65;;;22.40;;
20170;SDS011;10245;51.344;6.620;2023-02-16T01:45:39;40.55;;;24.67;;
20170;SDS011;10245;51.344;6.620;2023-02-16T01:48:08;38.50;;;23.92;;
20170;SDS011;10245;51.344;6.620;2023-02-16T01:50:41;38.20;;;23.27;;
20170;SDS011;10245;51.344;6.620;2023-02-16T01:53:17;38.05;;;22.75;;
20170;SDS011;10245;51.344;6.620;2023-02-16T01:55:46;46.17;;;26.45;;
20170;SDS011;10245;51.344;6.620;2023-02-16T01:58:14;40.67;;;24.30;;
20170;SDS011;10245;51.344;6.620;2023-02-16T02:03:55;38.53;;;24.33;;
20170;SDS011;10245;51.344;6.620;2023-02-16T02:06:36;38.78;;;23.95;;
20170;SDS011;10245;51.344;6.620;2023-02-16T02:09:00;43.88;;;26.67;;
20170;SDS011;10245;51.344;6.620;2023-02-16T02:11:29;38.85;;;24.50;;
20170;SDS011;10245;51.344;6.620;2023-02-16T02:13:59;37.95;;;23.80;;
20170;SDS011;10245;51.344;6.620;2023-02-16T02:16:28;38.63;;;24.42;;
20170;SDS011;10245;51.344;6.620;2023-02-16T02:18:52;44.08;;;28.17;;
20170;SDS011;10245;51.344;6.620;2023-02-16T02:21:27;39.03;;;25.50;;
20170;SDS011;10245;51.344;6.620;2023-02-16T02:24:42;48.50;;;28.45;;
20170;SDS011;10245;51.344;6.620;2023-02-16T02:27:27;39.63;;;25.10;;
20170;SDS011;10245;51.344;6.620;2023-02-16T02:30:02;48.70;;;27.75;;
20170;SDS011;10245;51.344;6.620;2023-02-16T02:32:54;46.65;;;28.40;;
20170;SDS011;10245;51.344;6.620;2023-02-16T02:35:42;41.53;;;27.05;;
20170;SDS011;10245;51.344;6.620;2023-02-16T02:38:14;45.05;;;30.05;;
20170;SDS011;10245;51.344;6.620;2023-02-16T02:40:50;47.20;;;27.75;;
20170;SDS011;10245;51.344;6.620;2023-02-16T02:43:25;48.50;;;28.57;;
20170;SDS011;10245;51.344;6.620;2023-02-16T02:45:53;46.33;;;28.05;;
20170;SDS011;10245;51.344;6.620;2023-02-16T02:48:21;48.13;;;29.27;;
20170;SDS011;10245;51.344;6.620;2023-02-16T02:50:48;45.25;;;27.50;;
20170;SDS011;10245;51.344;6.620;2023-02-16T02:53:34;46.55;;;26.23;;
20170;SDS011;10245;51.344;6.620;2023-02-16T02:56:01;44.88;;;26.85;;
20170;SDS011;10245;51.344;6.620;2023-02-16T02:58:58;43.47;;;25.67;;
20170;SDS011;10245;51.344;6.620;2023-02-16T03:01:45;39.17;;;24.40;;
20170;SDS011;10245;51.344;6.620;2023-02-16T03:04:12;42.05;;;24.15;;
20170;SDS011;10245;51.344;6.620;2023-02-16T03:06:41;39.58;;;23.35;;
20170;SDS011;10245;51.344;6.620;2023-02-16T03:09:09;42.25;;;24.25;;
20170;SDS011;10245;51.344;6.620;2023-02-16T03:11:36;42.70;;;25.77;;
20170;SDS011;10245;51.344;6.620;2023-02-16T03:14:19;44.45;;;26.30;;
20170;SDS011;10245;51.344;6.620;2023-02-16T03:16:48;49.57;;;27.37;;
20170;SDS011;10245;51.344;6.620;2023-02-16T03:19:31;51.40;;;27.10;;
20170;SDS011;10245;51.344;6.620;2023-02-16T03:22:12;38.55;;;23.50;;
20170;SDS011;10245;51.344;6.620;2023-02-16T03:24:53;43.70;;;25.25;;
20170;SDS011;10245;51.344;6.620;2023-02-16T03:27:35;40.40;;;25.05;;
20170;SDS011;10245;51.344;6.620;2023-02-16T03:30:20;44.42;;;25.55;;
20170;SDS011;10245;51.344;6.620;2023-02-16T03:32:45;45.50;;;26.67;;
20170;SDS011;10245;51.344;6.620;2023-02-16T03:35:09;49.30;;;27.98;;
20170;SDS011;10245;51.344;6.620;2023-02-16T03:37:33;44.70;;;25.90;;
20170;SDS011;10245;51.344;6.620;2023-02-16T03:39:57;40.78;;;25.45;;
20170;SDS011;10245;51.344;6.620;2023-02-16T03:42:38;44.87;;;25.53;;
20170;SDS011;10245;51.344;6.620;2023-02-16T03:45:01;44.05;;;25.92;;
20170;SDS011;10245;51.344;6.620;2023-02-16T03:47:26;40.57;;;24.20;;
20170;SDS011;10245;51.344;6.620;2023-02-16T03:49:49;43.10;;;25.20;;
20170;SDS011;10245;51.344;6.620;2023-02-16T03:52:12;41.58;;;25.63;;
20170;SDS011;10245;51.344;6.620;2023-02-16T03:54:36;45.22;;;25.65;;
20170;SDS011;10245;51.344;6.620;2023-02-16T03:56:59;44.17;;;25.93;;
20170;SDS011;10245;51.344;6.620;2023-02-16T03:59:23;42.58;;;25.48;;
20170;SDS011;10245;51.344;6.620;2023-02-16T04:01:46;42.50;;;25.75;;
20170;SDS011;10245;51.344;6.620;2023-02-16T04:04:11;47.25;;;26.45;;
20170;SDS011;10245;51.344;6.620;2023-02-16T04:06:35;49.40;;;26.87;;
20170;SDS011;10245;51.344;6.620;2023-02-16T04:08:59;45.72;;;27.17;;
20170;SDS011;10245;51.344;6.620;2023-02-16T04:11:23;41.63;;;25.13;;
20170;SDS011;10245;51.344;6.620;2023-02-16T04:14:03;46.30;;;27.60;;
20170;SDS011;10245;51.344;6.620;2023-02-16T04:16:27;44.00;;;26.45;;
20170;SDS011;10245;51.344;6.620;2023-02-16T04:18:50;41.05;;;24.77;;
20170;SDS011;10245;51.344;6.620;2023-02-16T04:21:15;46.65;;;27.92;;
20170;SDS011;10245;51.344;6.620;2023-02-16T04:23:39;42.38;;;26.08;;
20170;SDS011;10245;51.344;6.620;2023-02-16T04:26:02;43.13;;;24.85;;
20170;SDS011;10245;51.344;6.620;2023-02-16T04:28:26;45.30;;;27.13;;
20170;SDS011;10245;51.344;6.620;2023-02-16T04:30:49;44.03;;;26.50;;
20170;SDS011;10245;51.344;6.620;2023-02-16T04:33:13;40.65;;;26.90;;
20170;SDS011;10245;51.344;6.620;2023-02-16T04:35:36;47.63;;;27.77;;
20170;SDS011;10245;51.344;6.620;2023-02-16T04:38:01;40.57;;;24.57;;
20170;SDS011;10245;51.344;6.620;2023-02-16T04:40:24;45.72;;;25.98;;
20170;SDS011;10245;51.344;6.620;2023-02-16T04:42:47;41.03;;;26.05;;
20170;SDS011;10245;51.344;6.620;2023-02-16T04:45:11;45.97;;;26.83;;
20170;SDS011;10245;51.344;6.620;2023-02-16T04:47:35;41.25;;;25.38;;
20170;SDS011;10245;51.344;6.620;2023-02-16T04:49:58;40.90;;;24.77;;
20170;SDS011;10245;51.344;6.620;2023-02-16T04:52:22;44.53;;;26.70;;
20170;SDS011;10245;51.344;6.620;2023-02-16T04:54:47;46.30;;;26.57;;
20170;SDS011;10245;51.344;6.620;2023-02-16T04:57:10;40.60;;;25.90;;
20170;SDS011;10245;51.344;6.620;2023-02-16T04:59:34;45.37;;;27.00;;
20170;SDS011;10245;51.344;6.620;2023-02-16T05:01:58;50.10;;;27.98;;
20170;SDS011;10245;51.344;6.620;2023-02-16T05:04:21;42.67;;;26.13;;
20170;SDS011;10245;51.344;6.620;2023-02-16T05:06:45;41.80;;;25.27;;
20170;SDS011;10245;51.344;6.620;2023-02-16T05:09:09;47.40;;;27.47;;
20170;SDS011;10245;51.344;6.620;2023-02-16T05:11:34;42.37;;;27.17;;
20170;SDS011;10245;51.344;6.620;2023-02-16T05:14:16;51.53;;;27.38;;
20170;SDS011;10245;51.344;6.620;2023-02-16T05:16:59;44.83;;;25.83;;
20170;SDS011;10245;51.344;6.620;2023-02-16T05:19:22;47.03;;;27.80;;
20170;SDS011;10245;51.344;6.620;2023-02-16T05:21:46;45.63;;;27.45;;
20170;SDS011;10245;51.344;6.620;2023-02-16T05:24:09;48.67;;;27.30;;
20170;SDS011;10245;51.344;6.620;2023-02-16T05:26:36;51.00;;;27.27;;
20170;SDS011;10245;51.344;6.620;2023-02-16T05:29:00;44.58;;;27.58;;
20170;SDS011;10245;51.344;6.620;2023-02-16T05:31:25;45.88;;;26.50;;
20170;SDS011;10245;51.344;6.620;2023-02-16T05:33:49;48.35;;;27.95;;
20170;SDS011;10245;51.344;6.620;2023-02-16T05:36:13;49.47;;;27.77;;
20170;SDS011;10245;51.344;6.620;2023-02-16T05:38:36;46.87;;;28.10;;
20170;SDS011;10245;51.344;6.620;2023-02-16T05:41:00;46.78;;;28.73;;
20170;SDS011;10245;51.344;6.620;2023-02-16T05:43:25;49.05;;;28.52;;
20170;SDS011;10245;51.344;6.620;2023-02-16T05:45:49;51.08;;;28.60;;
20170;SDS011;10245;51.344;6.620;2023-02-16T05:48:13;42.40;;;26.60;;
20170;SDS011;10245;51.344;6.620;2023-02-16T05:50:36;48.97;;;27.55;;
20170;SDS011;10245;51.344;6.620;2023-02-16T05:52:59;45.55;;;26.42;;
20170;SDS011;10245;51.344;6.620;2023-02-16T05:55:23;46.47;;;27.25;;
20170;SDS011;10245;51.344;6.620;2023-02-16T05:57:46;46.05;;;27.17;;
20170;SDS011;10245;51.344;6.620;2023-02-16T06:00:12;47.30;;;28.50;;
20170;SDS011;10245;51.344;6.620;2023-02-16T06:02:36;41.72;;;26.10;;
20170;SDS011;10245;51.344;6.620;2023-02-16T06:05:00;43.27;;;26.63;;
20170;SDS011;10245;51.344;6.620;2023-02-16T06:07:23;47.85;;;26.92;;
20170;SDS011;10245;51.344;6.620;2023-02-16T06:09:46;46.20;;;27.83;;
20170;SDS011;10245;51.344;6.620;2023-02-16T06:12:10;54.28;;;28.33;;
20170;SDS011;10245;51.344;6.620;2023-02-16T06:14:33;50.40;;;28.35;;
20170;SDS011;10245;51.344;6.620;2023-02-16T06:16:58;50.55;;;27.67;;
20170;SDS011;10245;51.344;6.620;2023-02-16T06:19:21;47.97;;;27.30;;
20170;SDS011;10245;51.344;6.620;2023-02-16T06:21:45;49.00;;;27.92;;
20170;SDS011;10245;51.344;6.620;2023-02-16T06:24:09;44.13;;;26.20;;
20170;SDS011;10245;51.344;6.620;2023-02-16T06:26:35;49.17;;;28.17;;
20170;SDS011;10245;51.344;6.620;2023-02-16T06:28:58;46.72;;;27.35;;
20170;SDS011;10245;51.344;6.620;2023-02-16T06:31:22;54.53;;;28.98;;
20170;SDS011;10245;51.344;6.620;2023-02-16T06:33:47;48.40;;;28.87;;
20170;SDS011;10245;51.344;6.620;2023-02-16T06:36:11;46.47;;;26.80;;
20170;SDS011;10245;51.344;6.620;2023-02-16T06:38:35;47.28;;;27.98;;
20170;SDS011;10245;51.344;6.620;2023-02-16T06:40:58;47.05;;;27.17;;
20170;SDS011;10245;51.344;6.620;2023-02-16T06:43:22;48.85;;;26.75;;
20170;SDS011;10245;51.344;6.620;2023-02-16T06:45:45;45.10;;;26.37;;
20170;SDS011;10245;51.344;6.620;2023-02-16T06:48:09;47.47;;;27.50;;
20170;SDS011;10245;51.344;6.620;2023-02-16T06:50:34;50.30;;;29.20;;
20170;SDS011;10245;51.344;6.620;2023-02-16T06:52:58;45.72;;;27.25;;
20170;SDS011;10245;51.344;6.620;2023-02-16T06:55:21;47.72;;;28.10;;
20170;SDS011;10245;51.344;6.620;2023-02-16T06:57:44;47.42;;;27.58;;
20170;SDS011;10245;51.344;6.620;2023-02-16T07:00:08;46.15;;;27.42;;
20170;SDS011;10245;51.344;6.620;2023-02-16T07:02:32;44.30;;;26.88;;
20170;SDS011;10245;51.344;6.620;2023-02-16T07:04:57;45.38;;;26.60;;
20170;SDS011;10245;51.344;6.620;2023-02-16T07:07:22;48.17;;;27.27;;
20170;SDS011;10245;51.344;6.620;2023-02-16T07:09:46;49.17;;;28.27;;
20170;SDS011;10245;51.344;6.620;2023-02-16T07:12:09;40.83;;;25.13;;
20170;SDS011;10245;51.344;6.620;2023-02-16T07:14:32;45.40;;;26.60;;
20170;SDS011;10245;51.344;6.620;2023-02-16T07:16:56;46.30;;;26.92;;
20170;SDS011;10245;51.344;6.620;2023-02-16T07:19:24;45.00;;;28.60;;
20170;SDS011;10245;51.344;6.620;2023-02-16T07:21:50;49.90;;;26.15;;
20170;SDS011;10245;51.344;6.620;2023-02-16T07:24:16;43.00;;;26.13;;
20170;SDS011;10245;51.344;6.620;2023-02-16T07:26:40;46.28;;;27.77;;
20170;SDS011;10245;51.344;6.620;2023-02-16T07:29:03;51.35;;;27.98;;
20170;SDS011;10245;51.344;6.620;2023-02-16T07:31:27;45.03;;;27.30;;
20170;SDS011;10245;51.344;6.620;2023-02-16T07:33:50;43.53;;;27.38;;
20170;SDS011;10245;51.344;6.620;2023-02-16T07:36:14;48.45;;;27.67;;
20170;SDS011;10245;51.344;6.620;2023-02-16T07:38:37;45.10;;;27.08;;
20170;SDS011;10245;51.344;6.620;2023-02-16T07:41:03;48.92;;;28.55;;
20170;SDS011;10245;51.344;6.620;2023-02-16T07:43:30;46.90;;;28.00;;
20170;SDS011;10245;51.344;6.620;2023-02-16T07:45:55;44.38;;;25.88;;
20170;SDS011;10245;51.344;6.620;2023-02-16T07:48:18;45.28;;;27.60;;
20170;SDS011;10245;51.344;6.620;2023-02-16T07:50:42;49.42;;;28.02;;
20170;SDS011;10245;51.344;6.620;2023-02-16T07:53:06;55.15;;;28.42;;
20170;SDS011;10245;51.344;6.620;2023-02-16T07:55:37;52.22;;;26.75;;
20170;SDS011;10245;51.344;6.620;2023-02-16T07:58:02;52.35;;;27.58;;
20170;SDS011;10245;51.344;6.620;2023-02-16T08:00:26;46.92;;;26.08;;
20170;SDS011;10245;51.344;6.620;2023-02-16T08:02:49;48.45;;;26.75;;
20170;SDS011;10245;51.344;6.620;2023-02-16T08:05:13;43.47;;;26.35;;
20170;SDS011;10245;51.344;6.620;2023-02-16T08:07:38;49.45;;;27.92;;
20170;SDS011;10245;51.344;6.620;2023-02-16T08:10:02;47.50;;;27.95;;
20170;SDS011;10245;51.344;6.620;2023-02-16T08:12:26;47.30;;;27.05;;
20170;SDS011;10245;51.344;6.620;2023-02-16T08:14:50;47.58;;;28.17;;
20170;SDS011;10245;51.344;6.620;2023-02-16T08:17:14;48.42;;;27.52;;
20170;SDS011;10245;51.344;6.620;2023-02-16T08:19:38;49.88;;;27.98;;
20170;SDS011;10245;51.344;6.620;2023-02-16T08:22:02;49.50;;;28.65;;
20170;SDS011;10245;51.344;6.620;2023-02-16T08:24:26;43.53;;;26.55;;
20170;SDS011;10245;51.344;6.620;2023-02-16T08:26:50;48.53;;;28.00;;
20170;SDS011;10245;51.344;6.620;2023-02-16T08:29:16;50.75;;;27.80;;
20170;SDS011;10245;51.344;6.620;2023-02-16T08:31:41;44.92;;;26.90;;
20170;SDS011;10245;51.344;6.620;2023-02-16T08:34:06;48.45;;;27.80;;
20170;SDS011;10245;51.344;6.620;2023-02-16T08:36:31;47.03;;;27.75;;
20170;SDS011;10245;51.344;6.620;2023-02-16T08:38:56;42.60;;;27.45;;
20170;SDS011;10245;51.344;6.620;2023-02-16T08:41:21;51.43;;;28.30;;
20170;SDS011;10245;51.344;6.620;2023-02-16T08:43:50;50.35;;;27.45;;
20170;SDS011;10245;51.344;6.620;2023-02-16T08:46:14;42.40;;;25.52;;
20170;SDS011;10245;51.344;6.620;2023-02-16T08:48:40;47.40;;;29.00;;
20170;SDS011;10245;51.344;6.620;2023-02-16T08:51:05;40.55;;;26.27;;
20170;SDS011;10245;51.344;6.620;2023-02-16T08:53:30;41.72;;;25.85;;
20170;SDS011;10245;51.344;6.620;2023-02-16T08:55:54;46.30;;;26.83;;
20170;SDS011;10245;51.344;6.620;2023-02-16T08:58:20;43.88;;;25.83;;
20170;SDS011;10245;51.344;6.620;2023-02-16T09:00:44;41.53;;;24.92;;
20170;SDS011;10245;51.344;6.620;2023-02-16T09:03:08;43.72;;;25.30;;
20170;SDS011;10245;51.344;6.620;2023-02-16T09:05:32;47.63;;;26.80;;
20170;SDS011;10245;51.344;6.620;2023-02-16T09:07:56;43.70;;;26.25;;
20170;SDS011;10245;51.344;6.620;2023-02-16T09:10:19;42.85;;;26.98;;
20170;SDS011;10245;51.344;6.620;2023-02-16T09:12:43;41.67;;;24.67;;
20170;SDS011;10245;51.344;6.620;2023-02-16T09:15:08;44.35;;;25.42;;
20170;SDS011;10245;51.344;6.620;2023-02-16T09:17:32;44.55;;;26.10;;
20170;SDS011;10245;51.344;6.620;2023-02-16T09:19:56;38.58;;;25.33;;
20170;SDS011;10245;51.344;6.620;2023-02-16T09:22:21;38.42;;;24.42;;
20170;SDS011;10245;51.344;6.620;2023-02-16T09:24:44;40.83;;;24.85;;
20170;SDS011;10245;51.344;6.620;2023-02-16T09:27:07;38.75;;;24.98;;
20170;SDS011;10245;51.344;6.620;2023-02-16T09:29:32;41.00;;;24.80;;
20170;SDS011;10245;51.344;6.620;2023-02-16T09:31:55;40.72;;;24.23;;
20170;SDS011;10245;51.344;6.620;2023-02-16T09:34:19;40.70;;;25.15;;
20170;SDS011;10245;51.344;6.620;2023-02-16T09:36:48;39.15;;;25.05;;
20170;SDS011;10245;51.344;6.620;2023-02-16T09:39:13;39.45;;;24.95;;
20170;SDS011;10245;51.344;6.620;2023-02-16T09:41:40;41.45;;;25.42;;
20170;SDS011;10245;51.344;6.620;2023-02-16T09:44:23;42.08;;;25.80;;
20170;SDS011;10245;51.344;6.620;2023-02-16T09:46:58;38.13;;;25.05;;
20170;SDS011;10245;51.344;6.620;2023-02-16T09:49:26;38.88;;;25.75;;
20170;SDS011;10245;51.344;6.620;2023-02-16T09:51:55;41.53;;;24.83;;
20170;SDS011;10245;51.344;6.620;2023-02-16T09:54:29;42.38;;;24.77;;
20170;SDS011;10245;51.344;6.620;2023-02-16T09:57:00;42.67;;;25.88;;
20170;SDS011;10245;51.344;6.620;2023-02-16T09:59:33;42.90;;;26.05;;
20170;SDS011;10245;51.344;6.620;2023-02-16T10:02:15;40.55;;;24.58;;
20170;SDS011;10245;51.344;6.620;2023-02-16T10:05:02;37.05;;;24.35;;
20170;SDS011;10245;51.344;6.620;2023-02-16T10:07:40;36.47;;;23.92;;
20170;SDS011;10245;51.344;6.620;2023-02-16T10:10:30;40.33;;;24.67;;
20170;SDS011;10245;51.344;6.620;2023-02-16T10:13:03;39.42;;;25.50;;
20170;SDS011;10245;51.344;6.620;2023-02-16T10:15:36;42.33;;;24.70;;
20170;SDS011;10245;51.344;6.620;2023-02-16T10:18:04;36.00;;;22.92;;
20170;SDS011;10245;51.344;6.620;2023-02-16T10:20:39;38.10;;;24.50;;
20170;SDS011;10245;51.344;6.620;2023-02-16T10:23:08;40.45;;;24.23;;
20170;SDS011;10245;51.344;6.620;2023-02-16T10:25:46;41.45;;;24.20;;
20170;SDS011;10245;51.344;6.620;2023-02-16T10:28:17;43.97;;;25.83;;
20170;SDS011;10245;51.344;6.620;2023-02-16T10:30:45;40.10;;;24.38;;
20170;SDS011;10245;51.344;6.620;2023-02-16T10:33:13;41.00;;;24.60;;
20170;SDS011;10245;51.344;6.620;2023-02-16T10:35:40;40.22;;;24.85;;
20170;SDS011;10245;51.344;6.620;2023-02-16T10:38:09;36.22;;;24.05;;
20170;SDS011;10245;51.344;6.620;2023-02-16T10:40:41;33.20;;;22.60;;
20170;SDS011;10245;51.344;6.620;2023-02-16T10:43:15;39.33;;;24.65;;
20170;SDS011;10245;51.344;6.620;2023-02-16T10:45:46;38.83;;;23.58;;
20170;SDS011;10245;51.344;6.620;2023-02-16T10:48:13;37.88;;;23.88;;
20170;SDS011;10245;51.344;6.620;2023-02-16T10:50:38;35.75;;;24.75;;
20170;SDS011;10245;51.344;6.620;2023-02-16T10:53:05;40.42;;;24.98;;
20170;SDS011;10245;51.344;6.620;2023-02-16T10:55:36;38.30;;;23.65;;
20170;SDS011;10245;51.344;6.620;2023-02-16T10:58:01;40.78;;;24.98;;
20170;SDS011;10245;51.344;6.620;2023-02-16T11:00:32;35.83;;;23.08;;
20170;SDS011;10245;51.344;6.620;2023-02-16T11:03:09;35.38;;;23.50;;
20170;SDS011;10245;51.344;6.620;2023-02-16T11:05:36;38.55;;;24.40;;
20170;SDS011;10245;51.344;6.620;2023-02-16T11:08:02;37.70;;;25.30;;
20170;SDS011;10245;51.344;6.620;2023-02-16T11:13:18;39.97;;;23.90;;
20170;SDS011;10245;51.344;6.620;2023-02-16T11:15:49;35.42;;;23.05;;
20170;SDS011;10245;51.344;6.620;2023-02-16T11:18:21;36.90;;;24.27;;
20170;SDS011;10245;51.344;6.620;2023-02-16T11:20:52;42.85;;;25.65;;
20170;SDS011;10245;51.344;6.620;2023-02-16T11:23:20;42.28;;;25.30;;
20170;SDS011;10245;51.344;6.620;2023-02-16T11:25:52;40.42;;;25.25;;
20170;SDS011;10245;51.344;6.620;2023-02-16T11:28:24;39.25;;;25.50;;
20170;SDS011;10245;51.344;6.620;2023-02-16T11:30:57;38.53;;;24.15;;
20170;SDS011;10245;51.344;6.620;2023-02-16T11:33:26;34.85;;;23.45;;
20170;SDS011;10245;51.344;6.620;2023-02-16T11:35:50;38.88;;;23.75;;
20170;SDS011;10245;51.344;6.620;2023-02-16T11:40:57;41.58;;;26.95;;
20170;SDS011;10245;51.344;6.620;2023-02-16T11:43:26;42.78;;;25.25;;
20170;SDS011;10245;51.344;6.620;2023-02-16T11:45:56;39.50;;;25.70;;
20170;SDS011;10245;51.344;6.620;2023-02-16T11:48:24;42.30;;;26.40;;
20170;SDS011;10245;51.344;6.620;2023-02-16T11:50:53;43.20;;;26.00;;
20170;SDS011;10245;51.344;6.620;2023-02-16T11:53:22;38.05;;;24.67;;
20170;SDS011;10245;51.344;6.620;2023-02-16T11:55:47;37.10;;;25.70;;
20170;SDS011;10245;51.344;6.620;2023-02-16T11:58:14;44.17;;;27.38;;
20170;SDS011;10245;51.344;6.620;2023-02-16T12:00:43;39.60;;;27.02;;
20170;SDS011;10245;51.344;6.620;2023-02-16T12:03:22;45.53;;;26.45;;
20170;SDS011;10245;51.344;6.620;2023-02-16T12:06:12;40.08;;;26.73;;
20170;SDS011;10245;51.344;6.620;2023-02-16T12:08:57;37.85;;;25.52;;
20170;SDS011;10245;51.344;6.620;2023-02-16T12:11:33;38.92;;;26.33;;
20170;SDS011;10245;51.344;6.620;2023-02-16T12:14:17;40.58;;;26.58;;
20170;SDS011;10245;51.344;6.620;2023-02-16T12:16:55;45.22;;;27.80;;
20170;SDS011;10245;51.344;6.620;2023-02-16T12:19:32;39.03;;;26.20;;
20170;SDS011;10245;51.344;6.620;2023-02-16T12:22:04;41.40;;;27.48;;
20170;SDS011;10245;51.344;6.620;2023-02-16T12:24:45;42.00;;;26.45;;
20170;SDS011;10245;51.344;6.620;2023-02-16T12:27:17;38.83;;;26.85;;
20170;SDS011;10245;51.344;6.620;2023-02-16T12:29:49;45.00;;;28.00;;
20170;SDS011;10245;51.344;6.620;2023-02-16T12:32:28;39.95;;;26.98;;
20170;SDS011;10245;51.344;6.620;2023-02-16T12:35:18;47.13;;;27.40;;
20170;SDS011;10245;51.344;6.620;2023-02-16T12:38:10;40.85;;;26.70;;
20170;SDS011;10245;51.344;6.620;2023-02-16T12:40:48;39.70;;;27.80;;
20170;SDS011;10245;51.344;6.620;2023-02-16T12:43:25;43.58;;;27.77;;
20170;SDS011;10245;51.344;6.620;2023-02-16T12:45:56;37.33;;;26.75;;
20170;SDS011;10245;51.344;6.620;2023-02-16T12:48:32;38.60;;;26.30;;
20170;SDS011;10245;51.344;6.620;2023-02-16T12:51:03;37.13;;;26.63;;
20170;SDS011;10245;51.344;6.620;2023-02-16T12:53:34;38.65;;;27.17;;
20170;SDS011;10245;51.344;6.620;2023-02-16T12:56:06;35.70;;;26.38;;
20170;SDS011;10245;51.344;6.620;2023-02-16T12:58:35;38.05;;;27.85;;
20170;SDS011;10245;51.344;6.620;2023-02-16T13:01:03;36.92;;;26.92;;
20170;SDS011;10245;51.344;6.620;2023-02-16T13:03:37;36.92;;;26.30;;
20170;SDS011;10245;51.344;6.620;2023-02-16T13:06:05;39.10;;;27.02;;
20170;SDS011;10245;51.344;6.620;2023-02-16T13:08:38;37.13;;;26.17;;
20170;SDS011;10245;51.344;6.620;2023-02-16T13:11:09;37.58;;;27.65;;
20170;SDS011;10245;51.344;6.620;2023-02-16T13:13:40;35.75;;;25.55;;
20170;SDS011;10245;51.344;6.620;2023-02-16T13:16:10;40.92;;;26.75;;
20170;SDS011;10245;51.344;6.620;2023-02-16T13:18:52;39.70;;;25.52;;
20170;SDS011;10245;51.344;6.620;2023-02-16T13:21:23;33.33;;;24.67;;
20170;SDS011;10245;51.344;6.620;2023-02-16T13:24:30;34.13;;;24.80;;
20170;SDS011;10245;51.344;6.620;2023-02-16T13:27:18;36.50;;;24.65;;
20170;SDS011;10245;51.344;6.620;2023-02-16T13:29:56;36.45;;;25.15;;
20170;SDS011;10245;51.344;6.620;2023-02-16T13:32:59;35.35;;;25.20;;
20170;SDS011;10245;51.344;6.620;2023-02-16T13:38:57;36.38;;;25.38;;
20170;SDS011;10245;51.344;6.620;2023-02-16T13:42:05;36.85;;;26.50;;
20170;SDS011;10245;51.344;6.620;2023-02-16T13:45:13;42.90;;;26.35;;
20170;SDS011;10245;51.344;6.620;2023-02-16T13:47:39;37.22;;;26.00;;
20170;SDS011;10245;51.344;6.620;2023-02-16T13:50:04;38.10;;;27.02;;
20170;SDS011;10245;51.344;6.620;2023-02-16T13:52:38;35.25;;;25.90;;
20170;SDS011;10245;51.344;6.620;2023-02-16T13:55:04;39.67;;;26.35;;
20170;SDS011;10245;51.344;6.620;2023-02-16T13:57:59;37.50;;;25.92;;
20170;SDS011;10245;51.344;6.620;2023-02-16T14:00:28;40.15;;;25.50;;
20170;SDS011;10245;51.344;6.620;2023-02-16T14:02:56;40.13;;;24.45;;
20170;SDS011;10245;51.344;6.620;2023-02-16T14:05:24;36.60;;;25.65;;
20170;SDS011;10245;51.344;6.620;2023-02-16T14:13:33;33.08;;;24.50;;
20170;SDS011;10245;51.344;6.620;2023-02-16T14:16:11;39.30;;;25.85;;
20170;SDS011;10245;51.344;6.620;2023-02-16T14:18:52;38.30;;;26.27;;
20170;SDS011;10245;51.344;6.620;2023-02-16T14:21:24;37.65;;;27.02;;
20170;SDS011;10245;51.344;6.620;2023-02-16T14:23:55;41.05;;;26.40;;
20170;SDS011;10245;51.344;6.620;2023-02-16T14:26:20;40.85;;;28.77;;
20170;SDS011;10245;51.344;6.620;2023-02-16T14:31:40;39.47;;;27.08;;
20170;SDS011;10245;51.344;6.620;2023-02-16T14:34:12;38.15;;;26.83;;
20170;SDS011;10245;51.344;6.620;2023-02-16T14:39:49;37.70;;;27.10;;
20170;SDS011;10245;51.344;6.620;2023-02-16T14:42:29;37.33;;;27.85;;
20170;SDS011;10245;51.344;6.620;2023-02-16T14:45:01;39.45;;;27.60;;
20170;SDS011;10245;51.344;6.620;2023-02-16T14:47:44;43.20;;;28.33;;
20170;SDS011;10245;51.344;6.620;2023-02-16T14:50:22;35.63;;;26.60;;
20170;SDS011;10245;51.344;6.620;2023-02-16T14:53:09;37.95;;;26.55;;
20170;SDS011;10245;51.344;6.620;2023-02-16T14:56:15;36.20;;;26.92;;